sensor_id;sensor_type;location;lat;lon;timestamp;P1;durP1;ratioP1;P2;durP2;ratioP2
64682;SDS011;51107;47.652;19.016;2022-08-21T00:02:21;0.82;;;0.80;;
64682;SDS011;51107;47.652;19.016;2022-08-21T00:04:51;1.60;;;1.10;;
64682;SDS011;51107;47.652;19.016;2022-08-21T00:07:24;0.98;;;0.70;;
64682;SDS011;51107;47.652;19.016;2022-08-21T00:09:53;1.23;;;0.90;;
64682;SDS011;51107;47.652;19.016;2022-08-21T00:12:22;1.05;;;0.95;;
64682;SDS011;51107;47.652;19.016;2022-08-21T00:14:50;0.95;;;0.85;;
64682;SDS011;51107;47.652;19.016;2022-08-21T00:17:24;0.80;;;0.73;;
64682;SDS011;51107;47.652;19.016;2022-08-21T00:19:53;1.52;;;0.98;;
64682;SDS011;51107;47.652;19.016;2022-08-21T00:22:21;1.25;;;0.80;;
64682;SDS011;51107;47.652;19.016;2022-08-21T00:24:50;0.65;;;0.65;;
64682;SDS011;51107;47.652;19.016;2022-08-21T00:27:18;0.90;;;0.60;;
64682;SDS011;51107;47.652;19.016;2022-08-21T00:29:46;0.88;;;0.73;;
64682;SDS011;51107;47.652;19.016;2022-08-21T00:32:22;1.23;;;0.93;;
64682;SDS011;51107;47.652;19.016;2022-08-21T00:34:51;1.62;;;0.93;;
64682;SDS011;51107;47.652;19.016;2022-08-21T00:37:21;0.77;;;0.77;;
64682;SDS011;51107;47.652;19.016;2022-08-21T00:39:51;2.03;;;0.90;;
64682;SDS011;51107;47.652;19.016;2022-08-21T00:42:21;1.50;;;0.70;;
64682;SDS011;51107;47.652;19.016;2022-08-21T00:44:50;1.50;;;1.05;;
64682;SDS011;51107;47.652;19.016;2022-08-21T00:47:18;1.08;;;0.85;;
64682;SDS011;51107;47.652;19.016;2022-08-21T00:49:47;1.20;;;1.10;;
64682;SDS011;51107;47.652;19.016;2022-08-21T00:52:17;0.85;;;0.75;;
64682;SDS011;51107;47.652;19.016;2022-08-21T00:54:49;2.33;;;1.45;;
64682;SDS011;51107;47.652;19.016;2022-08-21T00:57:21;1.12;;;1.00;;
64682;SDS011;51107;47.652;19.016;2022-08-21T00:59:55;2.97;;;0.90;;
64682;SDS011;51107;47.652;19.016;2022-08-21T01:02:27;1.92;;;1.27;;
64682;SDS011;51107;47.652;19.016;2022-08-21T01:04:58;1.12;;;0.95;;
64682;SDS011;51107;47.652;19.016;2022-08-21T01:07:26;1.70;;;0.85;;
64682;SDS011;51107;47.652;19.016;2022-08-21T01:09:54;1.12;;;0.85;;
64682;SDS011;51107;47.652;19.016;2022-08-21T01:12:23;1.23;;;0.90;;
64682;SDS011;51107;47.652;19.016;2022-08-21T01:14:51;1.58;;;1.25;;
64682;SDS011;51107;47.652;19.016;2022-08-21T01:17:20;1.12;;;1.00;;
64682;SDS011;51107;47.652;19.016;2022-08-21T01:19:49;1.10;;;1.00;;
64682;SDS011;51107;47.652;19.016;2022-08-21T01:22:18;1.00;;;0.90;;
64682;SDS011;51107;47.652;19.016;2022-08-21T01:24:47;1.15;;;0.93;;
64682;SDS011;51107;47.652;19.016;2022-08-21T01:27:15;1.73;;;1.20;;
64682;SDS011;51107;47.652;19.016;2022-08-21T01:29:46;0.90;;;0.90;;
64682;SDS011;51107;47.652;19.016;2022-08-21T01:32:21;1.48;;;1.20;;
64682;SDS011;51107;47.652;19.016;2022-08-21T01:34:50;1.30;;;1.17;;
64682;SDS011;51107;47.652;19.016;2022-08-21T01:37:20;1.60;;;1.27;;
64682;SDS011;51107;47.652;19.016;2022-08-21T01:39:49;1.90;;;1.20;;
64682;SDS011;51107;47.652;19.016;2022-08-21T01:42:17;1.10;;;1.00;;
64682;SDS011;51107;47.652;19.016;2022-08-21T01:44:46;2.35;;;1.10;;
64682;SDS011;51107;47.652;19.016;2022-08-21T01:47:15;1.62;;;1.00;;
64682;SDS011;51107;47.652;19.016;2022-08-21T01:49:44;2.12;;;1.30;;
64682;SDS011;51107;47.652;19.016;2022-08-21T01:52:13;1.35;;;1.02;;
64682;SDS011;51107;47.652;19.016;2022-08-21T01:54:42;2.17;;;1.33;;
64682;SDS011;51107;47.652;19.016;2022-08-21T01:57:11;1.65;;;1.27;;
64682;SDS011;51107;47.652;19.016;2022-08-21T01:59:40;1.48;;;1.20;;
64682;SDS011;51107;47.652;19.016;2022-08-21T02:02:09;1.65;;;1.23;;
64682;SDS011;51107;47.652;19.016;2022-08-21T02:04:37;1.48;;;1.17;;
64682;SDS011;51107;47.652;19.016;2022-08-21T02:07:06;2.47;;;1.30;;
64682;SDS011;51107;47.652;19.016;2022-08-21T02:09:37;1.73;;;1.17;;
64682;SDS011;51107;47.652;19.016;2022-08-21T02:12:07;1.73;;;1.20;;
64682;SDS011;51107;47.652;19.016;2022-08-21T02:14:35;1.90;;;1.15;;
64682;SDS011;51107;47.652;19.016;2022-08-21T02:17:04;1.83;;;1.37;;
64682;SDS011;51107;47.652;19.016;2022-08-21T02:19:37;3.03;;;1.23;;
64682;SDS011;51107;47.652;19.016;2022-08-21T02:22:08;2.10;;;1.27;;
64682;SDS011;51107;47.652;19.016;2022-08-21T02:24:38;1.17;;;1.08;;
64682;SDS011;51107;47.652;19.016;2022-08-21T02:27:22;1.52;;;1.40;;
64682;SDS011;51107;47.652;19.016;2022-08-21T02:29:55;3.03;;;1.10;;
64682;SDS011;51107;47.652;19.016;2022-08-21T02:32:24;1.58;;;1.35;;
64682;SDS011;51107;47.652;19.016;2022-08-21T02:34:54;1.40;;;1.30;;
64682;SDS011;51107;47.652;19.016;2022-08-21T02:37:22;2.40;;;1.60;;
64682;SDS011;51107;47.652;19.016;2022-08-21T02:39:51;1.27;;;1.02;;
64682;SDS011;51107;47.652;19.016;2022-08-21T02:42:20;5.82;;;1.67;;
64682;SDS011;51107;47.652;19.016;2022-08-21T02:44:48;2.30;;;1.25;;
64682;SDS011;51107;47.652;19.016;2022-08-21T02:47:16;1.90;;;1.30;;
64682;SDS011;51107;47.652;19.016;2022-08-21T02:49:45;4.65;;;1.50;;
64682;SDS011;51107;47.652;19.016;2022-08-21T02:52:13;1.85;;;1.50;;
64682;SDS011;51107;47.652;19.016;2022-08-21T02:54:42;2.97;;;1.12;;
64682;SDS011;51107;47.652;19.016;2022-08-21T02:57:10;1.33;;;1.12;;
64682;SDS011;51107;47.652;19.016;2022-08-21T02:59:38;1.45;;;1.10;;
64682;SDS011;51107;47.652;19.016;2022-08-21T03:02:08;1.15;;;0.82;;
64682;SDS011;51107;47.652;19.016;2022-08-21T03:04:37;2.92;;;1.25;;
64682;SDS011;51107;47.652;19.016;2022-08-21T03:07:07;1.67;;;1.30;;
64682;SDS011;51107;47.652;19.016;2022-08-21T03:09:38;2.35;;;1.30;;
64682;SDS011;51107;47.652;19.016;2022-08-21T03:12:23;1.45;;;1.30;;
64682;SDS011;51107;47.652;19.016;2022-08-21T03:14:56;2.00;;;1.42;;
64682;SDS011;51107;47.652;19.016;2022-08-21T03:17:25;1.65;;;1.27;;
64682;SDS011;51107;47.652;19.016;2022-08-21T03:19:57;2.10;;;1.17;;
64682;SDS011;51107;47.652;19.016;2022-08-21T03:22:25;4.80;;;1.55;;
64682;SDS011;51107;47.652;19.016;2022-08-21T03:24:57;2.20;;;1.73;;
64682;SDS011;51107;47.652;19.016;2022-08-21T03:27:27;2.70;;;1.33;;
64682;SDS011;51107;47.652;19.016;2022-08-21T03:29:57;3.20;;;1.50;;
64682;SDS011;51107;47.652;19.016;2022-08-21T03:32:25;2.35;;;1.37;;
64682;SDS011;51107;47.652;19.016;2022-08-21T03:34:54;2.08;;;1.50;;
64682;SDS011;51107;47.652;19.016;2022-08-21T03:37:22;2.25;;;1.27;;
64682;SDS011;51107;47.652;19.016;2022-08-21T03:39:52;1.30;;;1.15;;
64682;SDS011;51107;47.652;19.016;2022-08-21T03:42:20;1.80;;;1.30;;
64682;SDS011;51107;47.652;19.016;2022-08-21T03:44:48;2.62;;;1.45;;
64682;SDS011;51107;47.652;19.016;2022-08-21T03:47:17;1.75;;;1.37;;
64682;SDS011;51107;47.652;19.016;2022-08-21T03:49:45;3.35;;;1.70;;
64682;SDS011;51107;47.652;19.016;2022-08-21T03:52:13;3.33;;;1.90;;
64682;SDS011;51107;47.652;19.016;2022-08-21T03:54:43;1.90;;;1.45;;
64682;SDS011;51107;47.652;19.016;2022-08-21T03:57:12;2.08;;;1.50;;
64682;SDS011;51107;47.652;19.016;2022-08-21T03:59:41;3.30;;;1.87;;
64682;SDS011;51107;47.652;19.016;2022-08-21T04:02:10;4.40;;;1.83;;
64682;SDS011;51107;47.652;19.016;2022-08-21T04:04:44;3.75;;;1.98;;
64682;SDS011;51107;47.652;19.016;2022-08-21T04:07:12;1.75;;;1.48;;
64682;SDS011;51107;47.652;19.016;2022-08-21T04:09:40;1.90;;;1.37;;
64682;SDS011;51107;47.652;19.016;2022-08-21T04:12:09;1.55;;;1.08;;
64682;SDS011;51107;47.652;19.016;2022-08-21T04:14:37;12.60;;;2.10;;
64682;SDS011;51107;47.652;19.016;2022-08-21T04:17:06;2.20;;;1.48;;
64682;SDS011;51107;47.652;19.016;2022-08-21T04:19:35;2.00;;;1.30;;
64682;SDS011;51107;47.652;19.016;2022-08-21T04:22:03;1.27;;;1.15;;
64682;SDS011;51107;47.652;19.016;2022-08-21T04:24:31;1.85;;;1.37;;
64682;SDS011;51107;47.652;19.016;2022-08-21T04:27:00;2.55;;;1.37;;
64682;SDS011;51107;47.652;19.016;2022-08-21T04:29:28;3.08;;;1.20;;
64682;SDS011;51107;47.652;19.016;2022-08-21T04:31:57;1.48;;;1.02;;
64682;SDS011;51107;47.652;19.016;2022-08-21T04:34:25;2.85;;;1.40;;
64682;SDS011;51107;47.652;19.016;2022-08-21T04:36:54;2.00;;;1.48;;
64682;SDS011;51107;47.652;19.016;2022-08-21T04:39:22;1.65;;;1.25;;
64682;SDS011;51107;47.652;19.016;2022-08-21T04:41:56;2.20;;;1.58;;
64682;SDS011;51107;47.652;19.016;2022-08-21T04:44:24;1.70;;;1.50;;
64682;SDS011;51107;47.652;19.016;2022-08-21T04:46:53;1.60;;;1.40;;
64682;SDS011;51107;47.652;19.016;2022-08-21T04:49:21;2.58;;;1.35;;
64682;SDS011;51107;47.652;19.016;2022-08-21T04:51:50;2.17;;;1.58;;
64682;SDS011;51107;47.652;19.016;2022-08-21T04:54:19;2.35;;;1.75;;
64682;SDS011;51107;47.652;19.016;2022-08-21T04:56:51;1.85;;;1.20;;
64682;SDS011;51107;47.652;19.016;2022-08-21T04:59:24;2.25;;;1.40;;
64682;SDS011;51107;47.652;19.016;2022-08-21T05:01:58;2.90;;;1.48;;
64682;SDS011;51107;47.652;19.016;2022-08-21T05:04:29;2.42;;;1.30;;
64682;SDS011;51107;47.652;19.016;2022-08-21T05:07:02;2.47;;;1.65;;
64682;SDS011;51107;47.652;19.016;2022-08-21T05:09:34;1.58;;;1.35;;
64682;SDS011;51107;47.652;19.016;2022-08-21T05:12:03;1.98;;;1.27;;
64682;SDS011;51107;47.652;19.016;2022-08-21T05:14:31;1.45;;;1.30;;
64682;SDS011;51107;47.652;19.016;2022-08-21T05:17:00;1.42;;;1.00;;
64682;SDS011;51107;47.652;19.016;2022-08-21T05:19:28;3.37;;;1.80;;
64682;SDS011;51107;47.652;19.016;2022-08-21T05:21:56;1.52;;;1.17;;
64682;SDS011;51107;47.652;19.016;2022-08-21T05:24:26;1.60;;;1.40;;
64682;SDS011;51107;47.652;19.016;2022-08-21T05:26:55;1.87;;;1.17;;
64682;SDS011;51107;47.652;19.016;2022-08-21T05:29:24;1.52;;;1.10;;
64682;SDS011;51107;47.652;19.016;2022-08-21T05:31:52;1.65;;;1.23;;
64682;SDS011;51107;47.652;19.016;2022-08-21T05:34:21;0.98;;;0.90;;
64682;SDS011;51107;47.652;19.016;2022-08-21T05:36:50;2.42;;;1.45;;
64682;SDS011;51107;47.652;19.016;2022-08-21T05:39:19;1.77;;;1.23;;
64682;SDS011;51107;47.652;19.016;2022-08-21T05:41:47;2.03;;;1.23;;
64682;SDS011;51107;47.652;19.016;2022-08-21T05:44:16;1.45;;;1.23;;
64682;SDS011;51107;47.652;19.016;2022-08-21T05:46:47;1.20;;;1.08;;
64682;SDS011;51107;47.652;19.016;2022-08-21T05:49:15;0.70;;;0.70;;
64682;SDS011;51107;47.652;19.016;2022-08-21T05:51:43;3.55;;;1.48;;
64682;SDS011;51107;47.652;19.016;2022-08-21T05:54:11;2.78;;;1.45;;
64682;SDS011;51107;47.652;19.016;2022-08-21T05:56:40;1.73;;;1.25;;
64682;SDS011;51107;47.652;19.016;2022-08-21T05:59:12;1.73;;;1.00;;
64682;SDS011;51107;47.652;19.016;2022-08-21T06:01:41;1.33;;;1.10;;
64682;SDS011;51107;47.652;19.016;2022-08-21T06:04:09;1.50;;;1.40;;
64682;SDS011;51107;47.652;19.016;2022-08-21T06:06:38;2.30;;;1.35;;
64682;SDS011;51107;47.652;19.016;2022-08-21T06:09:06;1.92;;;1.37;;
64682;SDS011;51107;47.652;19.016;2022-08-21T06:11:35;3.05;;;1.40;;
64682;SDS011;51107;47.652;19.016;2022-08-21T06:14:03;1.83;;;1.15;;
64682;SDS011;51107;47.652;19.016;2022-08-21T06:16:34;1.42;;;1.30;;
64682;SDS011;51107;47.652;19.016;2022-08-21T06:19:07;2.20;;;1.12;;
64682;SDS011;51107;47.652;19.016;2022-08-21T06:21:35;3.37;;;1.20;;
64682;SDS011;51107;47.652;19.016;2022-08-21T06:24:04;1.42;;;1.02;;
64682;SDS011;51107;47.652;19.016;2022-08-21T06:26:34;2.83;;;1.35;;
64682;SDS011;51107;47.652;19.016;2022-08-21T06:29:02;1.45;;;1.10;;
64682;SDS011;51107;47.652;19.016;2022-08-21T06:31:31;1.35;;;1.10;;
64682;SDS011;51107;47.652;19.016;2022-08-21T06:34:00;1.50;;;1.10;;
64682;SDS011;51107;47.652;19.016;2022-08-21T06:36:28;1.30;;;1.00;;
64682;SDS011;51107;47.652;19.016;2022-08-21T06:38:57;2.10;;;0.82;;
64682;SDS011;51107;47.652;19.016;2022-08-21T06:41:27;2.03;;;1.17;;
64682;SDS011;51107;47.652;19.016;2022-08-21T06:43:55;2.15;;;1.15;;
64682;SDS011;51107;47.652;19.016;2022-08-21T06:46:25;1.70;;;1.20;;
64682;SDS011;51107;47.652;19.016;2022-08-21T06:48:56;1.50;;;1.02;;
64682;SDS011;51107;47.652;19.016;2022-08-21T06:51:24;7.15;;;1.33;;
64682;SDS011;51107;47.652;19.016;2022-08-21T06:53:53;1.05;;;0.95;;
64682;SDS011;51107;47.652;19.016;2022-08-21T06:56:22;5.10;;;0.90;;
64682;SDS011;51107;47.652;19.016;2022-08-21T06:58:50;1.77;;;1.33;;
64682;SDS011;51107;47.652;19.016;2022-08-21T07:01:21;2.20;;;1.62;;
64682;SDS011;51107;47.652;19.016;2022-08-21T07:03:52;1.67;;;1.10;;
64682;SDS011;51107;47.652;19.016;2022-08-21T07:06:20;2.83;;;1.20;;
64682;SDS011;51107;47.652;19.016;2022-08-21T07:08:52;2.20;;;1.23;;
64682;SDS011;51107;47.652;19.016;2022-08-21T07:11:25;1.77;;;1.48;;
64682;SDS011;51107;47.652;19.016;2022-08-21T07:13:54;2.50;;;1.58;;
64682;SDS011;51107;47.652;19.016;2022-08-21T07:16:24;2.17;;;1.23;;
64682;SDS011;51107;47.652;19.016;2022-08-21T07:18:52;3.30;;;1.20;;
64682;SDS011;51107;47.652;19.016;2022-08-21T07:21:21;1.33;;;1.23;;
64682;SDS011;51107;47.652;19.016;2022-08-21T07:23:52;4.30;;;1.35;;
64682;SDS011;51107;47.652;19.016;2022-08-21T07:26:22;1.65;;;1.30;;
64682;SDS011;51107;47.652;19.016;2022-08-21T07:28:51;1.70;;;1.30;;
64682;SDS011;51107;47.652;19.016;2022-08-21T07:31:21;1.35;;;1.20;;
64682;SDS011;51107;47.652;19.016;2022-08-21T07:33:51;3.62;;;1.48;;
64682;SDS011;51107;47.652;19.016;2022-08-21T07:36:19;1.65;;;1.30;;
64682;SDS011;51107;47.652;19.016;2022-08-21T07:38:48;1.50;;;1.12;;
64682;SDS011;51107;47.652;19.016;2022-08-21T07:41:21;2.35;;;1.55;;
64682;SDS011;51107;47.652;19.016;2022-08-21T07:43:52;1.37;;;1.25;;
64682;SDS011;51107;47.652;19.016;2022-08-21T07:46:20;1.40;;;1.23;;
64682;SDS011;51107;47.652;19.016;2022-08-21T07:48:48;4.43;;;1.87;;
64682;SDS011;51107;47.652;19.016;2022-08-21T07:51:22;5.00;;;1.55;;
64682;SDS011;51107;47.652;19.016;2022-08-21T07:53:56;1.10;;;1.00;;
64682;SDS011;51107;47.652;19.016;2022-08-21T07:56:27;1.50;;;1.30;;
64682;SDS011;51107;47.652;19.016;2022-08-21T07:58:55;2.30;;;1.50;;
64682;SDS011;51107;47.652;19.016;2022-08-21T08:01:25;1.60;;;1.35;;
64682;SDS011;51107;47.652;19.016;2022-08-21T08:03:54;1.50;;;1.20;;
64682;SDS011;51107;47.652;19.016;2022-08-21T08:06:22;1.50;;;1.37;;
64682;SDS011;51107;47.652;19.016;2022-08-21T08:08:51;1.77;;;1.50;;
64682;SDS011;51107;47.652;19.016;2022-08-21T08:11:20;1.95;;;1.30;;
64682;SDS011;51107;47.652;19.016;2022-08-21T08:13:48;1.95;;;1.20;;
64682;SDS011;51107;47.652;19.016;2022-08-21T08:16:18;1.62;;;1.40;;
64682;SDS011;51107;47.652;19.016;2022-08-21T08:18:47;1.42;;;1.30;;
64682;SDS011;51107;47.652;19.016;2022-08-21T08:21:15;3.00;;;1.65;;
64682;SDS011;51107;47.652;19.016;2022-08-21T08:23:43;1.90;;;1.55;;
64682;SDS011;51107;47.652;19.016;2022-08-21T08:26:13;1.90;;;1.23;;
64682;SDS011;51107;47.652;19.016;2022-08-21T08:28:43;3.85;;;1.33;;
64682;SDS011;51107;47.652;19.016;2022-08-21T08:31:11;2.45;;;1.48;;
64682;SDS011;51107;47.652;19.016;2022-08-21T08:33:40;2.40;;;1.40;;
64682;SDS011;51107;47.652;19.016;2022-08-21T08:36:12;2.62;;;1.52;;
64682;SDS011;51107;47.652;19.016;2022-08-21T08:38:43;4.28;;;1.23;;
64682;SDS011;51107;47.652;19.016;2022-08-21T08:41:15;3.12;;;1.45;;
64682;SDS011;51107;47.652;19.016;2022-08-21T08:43:50;1.83;;;1.48;;
64682;SDS011;51107;47.652;19.016;2022-08-21T08:46:31;3.95;;;1.70;;
64682;SDS011;51107;47.652;19.016;2022-08-21T08:49:17;8.32;;;1.92;;
64682;SDS011;51107;47.652;19.016;2022-08-21T08:51:54;2.37;;;1.87;;
64682;SDS011;51107;47.652;19.016;2022-08-21T08:54:31;2.45;;;1.48;;
64682;SDS011;51107;47.652;19.016;2022-08-21T08:57:07;3.70;;;1.90;;
64682;SDS011;51107;47.652;19.016;2022-08-21T08:59:43;1.62;;;1.25;;
64682;SDS011;51107;47.652;19.016;2022-08-21T09:02:15;6.10;;;1.87;;
64682;SDS011;51107;47.652;19.016;2022-08-21T09:04:45;2.17;;;1.67;;
64682;SDS011;51107;47.652;19.016;2022-08-21T09:10:14;2.00;;;1.58;;
64682;SDS011;51107;47.652;19.016;2022-08-21T09:12:49;2.00;;;1.73;;
64682;SDS011;51107;47.652;19.016;2022-08-21T09:18:04;2.30;;;1.50;;
64682;SDS011;51107;47.652;19.016;2022-08-21T09:26:05;4.53;;;1.52;;
64682;SDS011;51107;47.652;19.016;2022-08-21T09:28:39;2.50;;;1.77;;
64682;SDS011;51107;47.652;19.016;2022-08-21T09:31:30;2.72;;;1.70;;
64682;SDS011;51107;47.652;19.016;2022-08-21T09:34:09;1.90;;;1.52;;
64682;SDS011;51107;47.652;19.016;2022-08-21T09:39:13;2.55;;;1.52;;
64682;SDS011;51107;47.652;19.016;2022-08-21T09:42:04;2.17;;;1.15;;
64682;SDS011;51107;47.652;19.016;2022-08-21T09:44:37;2.87;;;1.52;;
64682;SDS011;51107;47.652;19.016;2022-08-21T09:47:09;5.85;;;1.70;;
64682;SDS011;51107;47.652;19.016;2022-08-21T09:49:41;3.70;;;1.65;;
64682;SDS011;51107;47.652;19.016;2022-08-21T09:52:17;2.53;;;1.55;;
64682;SDS011;51107;47.652;19.016;2022-08-21T09:54:53;11.32;;;1.85;;
64682;SDS011;51107;47.652;19.016;2022-08-21T09:57:23;2.40;;;1.70;;
64682;SDS011;51107;47.652;19.016;2022-08-21T10:03:11;4.55;;;1.92;;
64682;SDS011;51107;47.652;19.016;2022-08-21T10:05:49;2.47;;;1.50;;
64682;SDS011;51107;47.652;19.016;2022-08-21T10:08:39;2.42;;;1.50;;
64682;SDS011;51107;47.652;19.016;2022-08-21T10:11:10;2.33;;;1.50;;
64682;SDS011;51107;47.652;19.016;2022-08-21T10:13:54;4.35;;;2.20;;
64682;SDS011;51107;47.652;19.016;2022-08-21T10:19:38;2.15;;;1.58;;
64682;SDS011;51107;47.652;19.016;2022-08-21T10:22:38;6.12;;;1.77;;
64682;SDS011;51107;47.652;19.016;2022-08-21T10:25:22;2.17;;;1.62;;
64682;SDS011;51107;47.652;19.016;2022-08-21T10:33:36;1.83;;;1.50;;
64682;SDS011;51107;47.652;19.016;2022-08-21T10:36:18;2.03;;;1.55;;
64682;SDS011;51107;47.652;19.016;2022-08-21T10:44:40;2.97;;;1.45;;
64682;SDS011;51107;47.652;19.016;2022-08-21T10:47:20;2.75;;;1.73;;
64682;SDS011;51107;47.652;19.016;2022-08-21T10:55:22;1.40;;;1.20;;
64682;SDS011;51107;47.652;19.016;2022-08-21T10:57:58;3.00;;;1.50;;
64682;SDS011;51107;47.652;19.016;2022-08-21T11:00:51;3.60;;;1.50;;
64682;SDS011;51107;47.652;19.016;2022-08-21T11:06:16;1.65;;;1.40;;
64682;SDS011;51107;47.652;19.016;2022-08-21T11:08:51;2.90;;;1.50;;
64682;SDS011;51107;47.652;19.016;2022-08-21T11:14:04;2.15;;;1.73;;
64682;SDS011;51107;47.652;19.016;2022-08-21T11:16:49;2.72;;;1.75;;
64682;SDS011;51107;47.652;19.016;2022-08-21T11:19:48;4.57;;;1.80;;
64682;SDS011;51107;47.652;19.016;2022-08-21T11:22:41;1.52;;;1.33;;
64682;SDS011;51107;47.652;19.016;2022-08-21T11:25:53;2.80;;;1.58;;
64682;SDS011;51107;47.652;19.016;2022-08-21T11:28:35;2.50;;;1.30;;
64682;SDS011;51107;47.652;19.016;2022-08-21T11:31:15;1.58;;;1.33;;
64682;SDS011;51107;47.652;19.016;2022-08-21T11:42:02;1.52;;;1.25;;
64682;SDS011;51107;47.652;19.016;2022-08-21T11:45:02;2.83;;;1.90;;
64682;SDS011;51107;47.652;19.016;2022-08-21T11:55:35;3.25;;;1.62;;
64682;SDS011;51107;47.652;19.016;2022-08-21T11:58:20;2.42;;;1.50;;
64682;SDS011;51107;47.652;19.016;2022-08-21T12:01:07;2.78;;;1.50;;
64682;SDS011;51107;47.652;19.016;2022-08-21T12:03:40;3.45;;;1.30;;
64682;SDS011;51107;47.652;19.016;2022-08-21T12:06:13;2.90;;;1.67;;
64682;SDS011;51107;47.652;19.016;2022-08-21T12:08:59;1.58;;;1.37;;
64682;SDS011;51107;47.652;19.016;2022-08-21T12:11:30;1.50;;;1.35;;
64682;SDS011;51107;47.652;19.016;2022-08-21T12:25:06;2.80;;;1.95;;
64682;SDS011;51107;47.652;19.016;2022-08-21T12:27:23;3.00;;;1.95;;
64682;SDS011;51107;47.652;19.016;2022-08-21T12:30:00;2.45;;;1.40;;
64682;SDS011;51107;47.652;19.016;2022-08-21T12:32:45;2.80;;;1.55;;
64682;SDS011;51107;47.652;19.016;2022-08-21T12:35:27;2.62;;;1.58;;
64682;SDS011;51107;47.652;19.016;2022-08-21T12:40:59;2.23;;;1.40;;
64682;SDS011;51107;47.652;19.016;2022-08-21T12:43:36;2.87;;;1.50;;
64682;SDS011;51107;47.652;19.016;2022-08-21T12:46:15;2.78;;;1.80;;
64682;SDS011;51107;47.652;19.016;2022-08-21T12:48:58;5.03;;;1.83;;
64682;SDS011;51107;47.652;19.016;2022-08-21T12:51:49;2.23;;;1.77;;
64682;SDS011;51107;47.652;19.016;2022-08-21T12:54:28;1.80;;;1.55;;
64682;SDS011;51107;47.652;19.016;2022-08-21T12:57:01;2.92;;;1.77;;
64682;SDS011;51107;47.652;19.016;2022-08-21T12:59:31;1.70;;;1.40;;
64682;SDS011;51107;47.652;19.016;2022-08-21T13:02:01;3.17;;;1.65;;
64682;SDS011;51107;47.652;19.016;2022-08-21T13:04:39;2.45;;;1.40;;
64682;SDS011;51107;47.652;19.016;2022-08-21T13:07:10;3.30;;;2.00;;
64682;SDS011;51107;47.652;19.016;2022-08-21T13:09:44;2.50;;;1.87;;
64682;SDS011;51107;47.652;19.016;2022-08-21T13:12:21;4.60;;;2.08;;
64682;SDS011;51107;47.652;19.016;2022-08-21T13:14:56;3.22;;;1.77;;
64682;SDS011;51107;47.652;19.016;2022-08-21T13:17:31;2.83;;;1.65;;
64682;SDS011;51107;47.652;19.016;2022-08-21T13:20:08;4.30;;;1.73;;
64682;SDS011;51107;47.652;19.016;2022-08-21T13:22:46;2.17;;;1.52;;
64682;SDS011;51107;47.652;19.016;2022-08-21T13:25:15;1.58;;;1.30;;
64682;SDS011;51107;47.652;19.016;2022-08-21T13:28:07;2.80;;;1.55;;
64682;SDS011;51107;47.652;19.016;2022-08-21T13:30:46;3.55;;;1.90;;
64682;SDS011;51107;47.652;19.016;2022-08-21T13:33:18;1.70;;;1.23;;
64682;SDS011;51107;47.652;19.016;2022-08-21T13:35:50;2.00;;;1.58;;
64682;SDS011;51107;47.652;19.016;2022-08-21T13:38:23;2.35;;;1.60;;
64682;SDS011;51107;47.652;19.016;2022-08-21T13:40:56;2.05;;;1.60;;
64682;SDS011;51107;47.652;19.016;2022-08-21T13:43:43;1.40;;;1.30;;
64682;SDS011;51107;47.652;19.016;2022-08-21T13:46:14;2.50;;;1.37;;
64682;SDS011;51107;47.652;19.016;2022-08-21T13:48:43;1.60;;;1.15;;
64682;SDS011;51107;47.652;19.016;2022-08-21T13:51:11;1.52;;;1.10;;
64682;SDS011;51107;47.652;19.016;2022-08-21T13:56:27;1.65;;;1.15;;
64682;SDS011;51107;47.652;19.016;2022-08-21T13:59:02;1.45;;;1.10;;
64682;SDS011;51107;47.652;19.016;2022-08-21T14:01:36;0.80;;;0.80;;
64682;SDS011;51107;47.652;19.016;2022-08-21T14:06:51;1.10;;;1.00;;
64682;SDS011;51107;47.652;19.016;2022-08-21T14:12:12;1.77;;;1.08;;
64682;SDS011;51107;47.652;19.016;2022-08-21T14:14:51;1.02;;;0.93;;
64682;SDS011;51107;47.652;19.016;2022-08-21T14:17:32;1.40;;;1.02;;
64682;SDS011;51107;47.652;19.016;2022-08-21T14:27:59;1.48;;;1.15;;
64682;SDS011;51107;47.652;19.016;2022-08-21T14:30:37;2.10;;;0.88;;
64682;SDS011;51107;47.652;19.016;2022-08-21T14:33:10;0.95;;;0.77;;
64682;SDS011;51107;47.652;19.016;2022-08-21T14:35:42;1.10;;;0.90;;
64682;SDS011;51107;47.652;19.016;2022-08-21T14:38:17;2.03;;;0.73;;
64682;SDS011;51107;47.652;19.016;2022-08-21T14:40:49;2.72;;;0.90;;
64682;SDS011;51107;47.652;19.016;2022-08-21T14:43:20;2.30;;;0.70;;
64682;SDS011;51107;47.652;19.016;2022-08-21T14:45:49;1.02;;;0.82;;
64682;SDS011;51107;47.652;19.016;2022-08-21T14:48:17;1.85;;;0.98;;
64682;SDS011;51107;47.652;19.016;2022-08-21T14:50:46;0.85;;;0.68;;
64682;SDS011;51107;47.652;19.016;2022-08-21T14:53:15;0.90;;;0.73;;
64682;SDS011;51107;47.652;19.016;2022-08-21T14:55:43;3.05;;;0.82;;
64682;SDS011;51107;47.652;19.016;2022-08-21T14:58:31;0.70;;;0.70;;
64682;SDS011;51107;47.652;19.016;2022-08-21T15:01:00;0.70;;;0.70;;
64682;SDS011;51107;47.652;19.016;2022-08-21T15:03:32;0.80;;;0.80;;
64682;SDS011;51107;47.652;19.016;2022-08-21T15:06:02;0.57;;;0.57;;
64682;SDS011;51107;47.652;19.016;2022-08-21T15:08:33;0.95;;;0.80;;
64682;SDS011;51107;47.652;19.016;2022-08-21T15:11:02;1.67;;;0.85;;
64682;SDS011;51107;47.652;19.016;2022-08-21T15:13:40;1.00;;;0.77;;
64682;SDS011;51107;47.652;19.016;2022-08-21T15:16:10;0.80;;;0.60;;
64682;SDS011;51107;47.652;19.016;2022-08-21T15:18:39;0.52;;;0.52;;
64682;SDS011;51107;47.652;19.016;2022-08-21T15:21:09;0.73;;;0.68;;
64682;SDS011;51107;47.652;19.016;2022-08-21T15:23:38;1.10;;;0.60;;
64682;SDS011;51107;47.652;19.016;2022-08-21T15:26:10;0.93;;;0.70;;
64682;SDS011;51107;47.652;19.016;2022-08-21T15:28:39;0.98;;;0.70;;
64682;SDS011;51107;47.652;19.016;2022-08-21T15:31:07;1.08;;;0.73;;
64682;SDS011;51107;47.652;19.016;2022-08-21T15:33:36;0.60;;;0.60;;
64682;SDS011;51107;47.652;19.016;2022-08-21T15:36:04;0.68;;;0.60;;
64682;SDS011;51107;47.652;19.016;2022-08-21T15:38:33;1.10;;;0.93;;
64682;SDS011;51107;47.652;19.016;2022-08-21T15:41:02;0.57;;;0.57;;
64682;SDS011;51107;47.652;19.016;2022-08-21T15:43:35;0.60;;;0.60;;
64682;SDS011;51107;47.652;19.016;2022-08-21T15:46:13;0.57;;;0.57;;
64682;SDS011;51107;47.652;19.016;2022-08-21T15:48:44;0.95;;;0.70;;
64682;SDS011;51107;47.652;19.016;2022-08-21T15:51:15;1.17;;;0.73;;
64682;SDS011;51107;47.652;19.016;2022-08-21T15:53:47;0.82;;;0.60;;
64682;SDS011;51107;47.652;19.016;2022-08-21T15:56:23;0.65;;;0.50;;
64682;SDS011;51107;47.652;19.016;2022-08-21T15:58:57;0.68;;;0.68;;
64682;SDS011;51107;47.652;19.016;2022-08-21T16:01:28;1.80;;;0.70;;
64682;SDS011;51107;47.652;19.016;2022-08-21T16:04:14;0.60;;;0.60;;
64682;SDS011;51107;47.652;19.016;2022-08-21T16:06:47;1.10;;;0.80;;
64682;SDS011;51107;47.652;19.016;2022-08-21T16:09:33;3.55;;;0.90;;
64682;SDS011;51107;47.652;19.016;2022-08-21T16:12:01;1.00;;;0.80;;
64682;SDS011;51107;47.652;19.016;2022-08-21T16:14:32;1.83;;;0.88;;
64682;SDS011;51107;47.652;19.016;2022-08-21T16:17:05;0.80;;;0.80;;
64682;SDS011;51107;47.652;19.016;2022-08-21T16:19:34;1.00;;;0.80;;
64682;SDS011;51107;47.652;19.016;2022-08-21T16:22:04;1.58;;;1.00;;
64682;SDS011;51107;47.652;19.016;2022-08-21T16:24:32;1.37;;;0.75;;
64682;SDS011;51107;47.652;19.016;2022-08-21T16:27:03;0.98;;;0.73;;
64682;SDS011;51107;47.652;19.016;2022-08-21T16:29:35;2.40;;;1.10;;
64682;SDS011;51107;47.652;19.016;2022-08-21T16:32:06;1.20;;;0.80;;